sensor_id;sensor_type;location;lat;lon;timestamp;pressure;altitude;pressure_sealevel;temperature;humidity
24892;BME280;12954;50.688;10.908;2023-03-22T00:00:12;95283.25;;;6.56;62.30
24892;BME280;12954;50.688;10.908;2023-03-22T00:02:42;95285.94;;;6.61;62.10
24892;BME280;12954;50.688;10.908;2023-03-22T00:05:11;95271.13;;;6.49;62.46
24892;BME280;12954;50.688;10.908;2023-03-22T00:07:39;95291.81;;;6.63;62.14
24892;BME280;12954;50.688;10.908;2023-03-22T00:10:09;95283.50;;;6.60;62.29
24892;BME280;12954;50.688;10.908;2023-03-22T00:12:38;95288.06;;;6.59;62.58
24892;BME280;12954;50.688;10.908;2023-03-22T00:15:07;95273.28;;;6.47;62.67
24892;BME280;12954;50.688;10.908;2023-03-22T00:17:38;95288.34;;;6.63;62.69
24892;BME280;12954;50.688;10.908;2023-03-22T00:20:08;95290.72;;;6.54;63.04
24892;BME280;12954;50.688;10.908;2023-03-22T00:22:37;95273.22;;;6.37;63.10
24892;BME280;12954;50.688;10.908;2023-03-22T00:25:06;95280.50;;;6.51;63.25
24892;BME280;12954;50.688;10.908;2023-03-22T00:27:35;95281.03;;;6.48;63.61
24892;BME280;12954;50.688;10.908;2023-03-22T00:30:04;95278.63;;;6.42;63.75
24892;BME280;12954;50.688;10.908;2023-03-22T00:32:33;95273.78;;;6.44;63.66
24892;BME280;12954;50.688;10.908;2023-03-22T00:35:04;95272.16;;;6.43;63.68
24892;BME280;12954;50.688;10.908;2023-03-22T00:37:33;95281.53;;;6.40;64.06
24892;BME280;12954;50.688;10.908;2023-03-22T00:40:07;95277.25;;;6.39;63.96
24892;BME280;12954;50.688;10.908;2023-03-22T00:42:36;95269.75;;;6.41;63.96
24892;BME280;12954;50.688;10.908;2023-03-22T00:45:06;95290.69;;;6.44;63.99
24892;BME280;12954;50.688;10.908;2023-03-22T00:47:35;95287.19;;;6.44;64.13
24892;BME280;12954;50.688;10.908;2023-03-22T00:50:06;95285.84;;;6.46;64.07
24892;BME280;12954;50.688;10.908;2023-03-22T00:52:35;95292.84;;;6.47;64.36
24892;BME280;12954;50.688;10.908;2023-03-22T00:55:04;94914.28;;;4.15;64.02
24892;BME280;12954;50.688;10.908;2023-03-22T00:57:32;95278.63;;;6.47;63.71
24892;BME280;12954;50.688;10.908;2023-03-22T01:00:01;95282.94;;;6.53;64.11
24892;BME280;12954;50.688;10.908;2023-03-22T01:02:35;95293.66;;;6.53;64.19
24892;BME280;12954;50.688;10.908;2023-03-22T01:05:06;95287.50;;;6.52;64.30
24892;BME280;12954;50.688;10.908;2023-03-22T01:07:35;95282.38;;;6.46;64.61
24892;BME280;12954;50.688;10.908;2023-03-22T01:10:08;95277.53;;;6.43;64.44
24892;BME280;12954;50.688;10.908;2023-03-22T01:12:37;95242.38;;;6.24;64.31
24892;BME280;12954;50.688;10.908;2023-03-22T01:15:07;95266.59;;;6.49;64.15
24892;BME280;12954;50.688;10.908;2023-03-22T01:17:35;95281.34;;;6.57;64.34
24892;BME280;12954;50.688;10.908;2023-03-22T01:20:07;95275.97;;;6.57;64.15
24892;BME280;12954;50.688;10.908;2023-03-22T01:22:37;95273.81;;;6.54;64.23
24892;BME280;12954;50.688;10.908;2023-03-22T01:25:06;95278.41;;;6.53;64.36
24892;BME280;12954;50.688;10.908;2023-03-22T01:27:35;95273.81;;;6.49;64.40
24892;BME280;12954;50.688;10.908;2023-03-22T01:30:05;95259.34;;;6.50;64.24
24892;BME280;12954;50.688;10.908;2023-03-22T01:32:34;95264.44;;;6.51;64.43
24892;BME280;12954;50.688;10.908;2023-03-22T01:35:04;95281.91;;;6.59;64.30
24892;BME280;12954;50.688;10.908;2023-03-22T01:37:34;95280.56;;;6.61;64.28
24892;BME280;12954;50.688;10.908;2023-03-22T01:40:03;95275.72;;;6.58;64.55
24892;BME280;12954;50.688;10.908;2023-03-22T01:42:32;95240.50;;;6.30;64.52
24892;BME280;12954;50.688;10.908;2023-03-22T01:45:35;95274.41;;;6.61;64.62
24892;BME280;12954;50.688;10.908;2023-03-22T01:48:11;95272.00;;;6.59;64.58
24892;BME280;12954;50.688;10.908;2023-03-22T01:50:44;95265.00;;;6.58;64.60
24892;BME280;12954;50.688;10.908;2023-03-22T01:53:17;95263.38;;;6.57;64.57
24892;BME280;12954;50.688;10.908;2023-03-22T01:55:50;95265.25;;;6.57;64.69
24892;BME280;12954;50.688;10.908;2023-03-22T01:58:19;95246.84;;;6.71;64.02
24892;BME280;12954;50.688;10.908;2023-03-22T02:00:49;95256.47;;;6.66;64.62
24892;BME280;12954;50.688;10.908;2023-03-22T02:03:23;95248.94;;;6.68;64.34
24892;BME280;12954;50.688;10.908;2023-03-22T02:05:54;95253.25;;;6.75;64.24
24892;BME280;12954;50.688;10.908;2023-03-22T02:08:24;95244.09;;;6.55;64.58
24892;BME280;12954;50.688;10.908;2023-03-22T02:10:52;95257.22;;;6.57;64.96
24892;BME280;12954;50.688;10.908;2023-03-22T02:13:41;95251.59;;;6.53;64.97
24892;BME280;12954;50.688;10.908;2023-03-22T02:16:23;95255.34;;;6.52;65.07
24892;BME280;12954;50.688;10.908;2023-03-22T02:19:06;95243.03;;;6.56;65.11
24892;BME280;12954;50.688;10.908;2023-03-22T02:22:01;95251.09;;;6.56;64.98
24892;BME280;12954;50.688;10.908;2023-03-22T02:25:02;95240.34;;;6.56;65.00
24892;BME280;12954;50.688;10.908;2023-03-22T02:31:12;95240.88;;;6.53;65.19
24892;BME280;12954;50.688;10.908;2023-03-22T02:34:36;95218.06;;;6.46;64.90
24892;BME280;12954;50.688;10.908;2023-03-22T02:37:41;95223.47;;;6.66;64.76
24892;BME280;12954;50.688;10.908;2023-03-22T02:40:25;95195.06;;;6.55;64.80
24892;BME280;12954;50.688;10.908;2023-03-22T02:43:02;95224.28;;;6.61;64.93
24892;BME280;12954;50.688;10.908;2023-03-22T02:45:35;95185.63;;;6.37;64.97
24892;BME280;12954;50.688;10.908;2023-03-22T02:48:10;95212.50;;;6.67;64.77
24892;BME280;12954;50.688;10.908;2023-03-22T02:50:43;95220.28;;;6.64;64.74
24892;BME280;12954;50.688;10.908;2023-03-22T02:53:16;95182.41;;;6.35;64.73
24892;BME280;12954;50.688;10.908;2023-03-22T02:55:50;95223.19;;;6.57;64.90
24892;BME280;12954;50.688;10.908;2023-03-22T02:58:23;95223.75;;;6.59;64.59
24892;BME280;12954;50.688;10.908;2023-03-22T03:00:56;95216.75;;;6.53;64.59
24892;BME280;12954;50.688;10.908;2023-03-22T03:03:27;95230.16;;;6.53;64.80
24892;BME280;12954;50.688;10.908;2023-03-22T03:06:00;95206.53;;;6.45;64.99
24892;BME280;12954;50.688;10.908;2023-03-22T03:08:32;95217.88;;;6.62;64.85
24892;BME280;12954;50.688;10.908;2023-03-22T03:11:02;95194.72;;;6.36;64.82
24892;BME280;12954;50.688;10.908;2023-03-22T03:13:31;95219.75;;;6.67;64.26
24892;BME280;12954;50.688;10.908;2023-03-22T03:16:00;95219.19;;;6.60;64.87
24892;BME280;12954;50.688;10.908;2023-03-22T03:18:37;95223.41;;;6.46;65.15
24892;BME280;12954;50.688;10.908;2023-03-22T03:21:19;95217.59;;;6.59;64.91
24892;BME280;12954;50.688;10.908;2023-03-22T03:23:52;95222.59;;;6.45;65.36
24892;BME280;12954;50.688;10.908;2023-03-22T03:26:28;95222.66;;;6.55;64.86
24892;BME280;12954;50.688;10.908;2023-03-22T03:29:03;95186.13;;;6.29;64.60
24892;BME280;12954;50.688;10.908;2023-03-22T03:31:37;95207.63;;;6.54;64.46
24892;BME280;12954;50.688;10.908;2023-03-22T03:34:13;95212.75;;;6.56;64.51
24892;BME280;12954;50.688;10.908;2023-03-22T03:36:49;95188.59;;;6.41;64.47
24892;BME280;12954;50.688;10.908;2023-03-22T03:39:18;95205.72;;;6.40;64.87
24892;BME280;12954;50.688;10.908;2023-03-22T03:41:50;95200.63;;;6.38;64.56
24892;BME280;12954;50.688;10.908;2023-03-22T03:44:20;95212.41;;;6.42;64.58
24892;BME280;12954;50.688;10.908;2023-03-22T03:46:50;95211.88;;;6.40;64.78
24892;BME280;12954;50.688;10.908;2023-03-22T03:49:21;95217.25;;;6.40;64.70
24892;BME280;12954;50.688;10.908;2023-03-22T03:51:52;95212.94;;;6.34;64.96
24892;BME280;12954;50.688;10.908;2023-03-22T03:54:22;95202.97;;;6.25;65.21
24892;BME280;12954;50.688;10.908;2023-03-22T03:56:52;95216.72;;;6.38;65.03
24892;BME280;12954;50.688;10.908;2023-03-22T03:59:20;95183.44;;;6.24;64.70
24892;BME280;12954;50.688;10.908;2023-03-22T04:01:49;95222.06;;;6.43;64.93
24892;BME280;12954;50.688;10.908;2023-03-22T04:04:19;95221.03;;;6.44;65.27
24892;BME280;12954;50.688;10.908;2023-03-22T04:06:53;95220.19;;;6.39;65.42
24892;BME280;12954;50.688;10.908;2023-03-22T04:09:23;95213.75;;;6.40;65.58
24892;BME280;12954;50.688;10.908;2023-03-22T04:11:55;95214.56;;;6.45;65.40
24892;BME280;12954;50.688;10.908;2023-03-22T04:14:24;95217.31;;;6.55;65.44
24892;BME280;12954;50.688;10.908;2023-03-22T04:16:53;95209.50;;;6.44;65.88
24892;BME280;12954;50.688;10.908;2023-03-22T04:19:22;95194.50;;;6.48;65.96
24892;BME280;12954;50.688;10.908;2023-03-22T04:21:50;95201.97;;;6.41;66.38
24892;BME280;12954;50.688;10.908;2023-03-22T04:24:19;95193.19;;;6.50;65.82
24892;BME280;12954;50.688;10.908;2023-03-22T04:26:48;95136.28;;;6.18;65.96
24892;BME280;12954;50.688;10.908;2023-03-22T04:29:18;95194.81;;;6.56;65.84
24892;BME280;12954;50.688;10.908;2023-03-22T04:31:47;95188.34;;;6.57;65.67
24892;BME280;12954;50.688;10.908;2023-03-22T04:34:16;95188.34;;;6.57;65.71
24892;BME280;12954;50.688;10.908;2023-03-22T04:36:44;95183.56;;;6.59;65.67
24892;BME280;12954;50.688;10.908;2023-03-22T04:39:12;95180.56;;;6.51;65.75
24892;BME280;12954;50.688;10.908;2023-03-22T04:41:41;95183.00;;;6.57;65.75
24892;BME280;12954;50.688;10.908;2023-03-22T04:44:09;95191.84;;;6.63;65.54
24892;BME280;12954;50.688;10.908;2023-03-22T04:46:39;95171.75;;;6.60;65.51
24892;BME280;12954;50.688;10.908;2023-03-22T04:49:08;95184.63;;;6.58;65.73
24892;BME280;12954;50.688;10.908;2023-03-22T04:51:36;95187.56;;;6.62;65.61
24892;BME280;12954;50.688;10.908;2023-03-22T04:54:05;95173.38;;;6.61;65.68
24892;BME280;12954;50.688;10.908;2023-03-22T04:56:33;95160.75;;;6.57;65.48
24892;BME280;12954;50.688;10.908;2023-03-22T04:59:02;95175.00;;;6.67;65.29
24892;BME280;12954;50.688;10.908;2023-03-22T05:01:31;95097.75;;;6.34;65.22
24892;BME280;12954;50.688;10.908;2023-03-22T05:04:02;95150.06;;;6.62;65.19
24892;BME280;12954;50.688;10.908;2023-03-22T05:06:31;95151.69;;;6.68;64.97
24892;BME280;12954;50.688;10.908;2023-03-22T05:09:00;95129.41;;;6.47;65.34
24892;BME280;12954;50.688;10.908;2023-03-22T05:11:29;95139.88;;;6.64;65.25
24892;BME280;12954;50.688;10.908;2023-03-22T05:13:57;95146.03;;;6.69;65.05
24892;BME280;12954;50.688;10.908;2023-03-22T05:16:25;95136.38;;;6.68;64.92
24892;BME280;12954;50.688;10.908;2023-03-22T05:18:54;95147.66;;;6.65;64.78
24892;BME280;12954;50.688;10.908;2023-03-22T05:21:24;95148.72;;;6.64;64.96
24892;BME280;12954;50.688;10.908;2023-03-22T05:23:55;95150.84;;;6.57;65.44
24892;BME280;12954;50.688;10.908;2023-03-22T05:26:24;95154.59;;;6.56;65.14
24892;BME280;12954;50.688;10.908;2023-03-22T05:28:53;95156.75;;;6.64;65.38
24892;BME280;12954;50.688;10.908;2023-03-22T05:31:22;95150.88;;;6.62;65.43
24892;BME280;12954;50.688;10.908;2023-03-22T05:33:51;95128.28;;;6.33;65.84
24892;BME280;12954;50.688;10.908;2023-03-22T05:36:20;95168.00;;;6.56;65.81
24892;BME280;12954;50.688;10.908;2023-03-22T05:38:51;95148.72;;;6.75;65.21
24892;BME280;12954;50.688;10.908;2023-03-22T05:41:19;95149.25;;;6.72;65.24
24892;BME280;12954;50.688;10.908;2023-03-22T05:43:47;95153.81;;;6.66;65.65
24892;BME280;12954;50.688;10.908;2023-03-22T05:46:16;95157.81;;;6.68;65.60
24892;BME280;12954;50.688;10.908;2023-03-22T05:48:45;95097.22;;;6.37;65.44
24892;BME280;12954;50.688;10.908;2023-03-22T05:51:15;95160.56;;;6.89;65.38
24892;BME280;12954;50.688;10.908;2023-03-22T05:53:46;95156.50;;;6.81;65.60
24892;BME280;12954;50.688;10.908;2023-03-22T05:56:16;95151.94;;;6.87;65.26
24892;BME280;12954;50.688;10.908;2023-03-22T05:58:47;95154.63;;;6.87;65.52
24892;BME280;12954;50.688;10.908;2023-03-22T06:01:16;95160.56;;;6.89;65.49
24892;BME280;12954;50.688;10.908;2023-03-22T06:03:46;95141.75;;;6.79;65.28
24892;BME280;12954;50.688;10.908;2023-03-22T06:06:15;95147.69;;;6.86;65.17
24892;BME280;12954;50.688;10.908;2023-03-22T06:08:43;95152.50;;;6.89;65.06
24892;BME280;12954;50.688;10.908;2023-03-22T06:11:11;95107.72;;;6.64;65.00
24892;BME280;12954;50.688;10.908;2023-03-22T06:13:41;95155.19;;;6.94;65.10
24892;BME280;12954;50.688;10.908;2023-03-22T06:16:10;95154.91;;;7.10;64.38
24892;BME280;12954;50.688;10.908;2023-03-22T06:18:38;95163.22;;;6.94;65.03
24892;BME280;12954;50.688;10.908;2023-03-22T06:21:07;95161.38;;;6.94;64.90
24892;BME280;12954;50.688;10.908;2023-03-22T06:23:35;95156.00;;;6.94;65.32
24892;BME280;12954;50.688;10.908;2023-03-22T06:26:04;95140.69;;;6.90;65.05
24892;BME280;12954;50.688;10.908;2023-03-22T06:28:32;95157.88;;;7.19;64.79
24892;BME280;12954;50.688;10.908;2023-03-22T06:31:06;95164.31;;;7.18;64.80
24892;BME280;12954;50.688;10.908;2023-03-22T06:33:35;95154.13;;;7.30;64.20
24892;BME280;12954;50.688;10.908;2023-03-22T06:36:04;95169.66;;;7.33;64.33
24892;BME280;12954;50.688;10.908;2023-03-22T06:38:33;95166.47;;;7.26;64.93
24892;BME280;12954;50.688;10.908;2023-03-22T06:41:01;95162.97;;;7.36;64.83
24892;BME280;12954;50.688;10.908;2023-03-22T06:43:30;95165.91;;;7.49;64.50
24892;BME280;12954;50.688;10.908;2023-03-22T06:45:58;95150.09;;;7.38;64.06
24892;BME280;12954;50.688;10.908;2023-03-22T06:48:28;95114.44;;;7.27;63.92
24892;BME280;12954;50.688;10.908;2023-03-22T06:50:57;95166.19;;;7.53;64.15
24892;BME280;12954;50.688;10.908;2023-03-22T06:53:26;95166.97;;;7.58;64.16
24892;BME280;12954;50.688;10.908;2023-03-22T06:55:55;95172.84;;;7.65;63.81
24892;BME280;12954;50.688;10.908;2023-03-22T06:58:23;95171.78;;;7.61;64.25
24892;BME280;12954;50.688;10.908;2023-03-22T07:00:52;95164.81;;;7.75;63.70
24892;BME280;12954;50.688;10.908;2023-03-22T07:03:22;95168.28;;;7.86;63.01
24892;BME280;12954;50.688;10.908;2023-03-22T07:05:52;95132.09;;;7.43;63.36
24892;BME280;12954;50.688;10.908;2023-03-22T07:08:27;95171.00;;;7.76;63.62
24892;BME280;12954;50.688;10.908;2023-03-22T07:10:55;95172.84;;;7.91;62.72
24892;BME280;12954;50.688;10.908;2023-03-22T07:13:24;95173.94;;;7.79;63.08
24892;BME280;12954;50.688;10.908;2023-03-22T07:15:54;95165.88;;;7.85;63.02
24892;BME280;12954;50.688;10.908;2023-03-22T07:18:24;95160.50;;;7.85;62.85
24892;BME280;12954;50.688;10.908;2023-03-22T07:20:54;95161.56;;;7.68;63.42
24892;BME280;12954;50.688;10.908;2023-03-22T07:23:22;95166.44;;;7.76;63.31
24892;BME280;12954;50.688;10.908;2023-03-22T07:25:51;95163.19;;;7.85;63.05
24892;BME280;12954;50.688;10.908;2023-03-22T07:28:22;95155.91;;;7.95;62.74
24892;BME280;12954;50.688;10.908;2023-03-22T07:30:58;95133.44;;;7.71;62.85
24892;BME280;12954;50.688;10.908;2023-03-22T07:33:27;95174.44;;;7.87;63.15
24892;BME280;12954;50.688;10.908;2023-03-22T07:35:57;95168.47;;;8.10;62.25
24892;BME280;12954;50.688;10.908;2023-03-22T07:38:25;95157.22;;;7.98;62.87
24892;BME280;12954;50.688;10.908;2023-03-22T07:40:54;95161.22;;;8.10;62.70
24892;BME280;12954;50.688;10.908;2023-03-22T07:43:22;95149.16;;;8.08;62.90
24892;BME280;12954;50.688;10.908;2023-03-22T07:45:51;95159.31;;;8.21;62.57
24892;BME280;12954;50.688;10.908;2023-03-22T07:48:21;95151.44;;;8.34;62.12
24892;BME280;12954;50.688;10.908;2023-03-22T07:50:53;95148.31;;;8.17;62.44
24892;BME280;12954;50.688;10.908;2023-03-22T07:53:23;95150.06;;;8.42;61.84
24892;BME280;12954;50.688;10.908;2023-03-22T07:55:52;95157.06;;;8.43;61.78
24892;BME280;12954;50.688;10.908;2023-03-22T07:58:20;95153.84;;;8.41;61.81
24892;BME280;12954;50.688;10.908;2023-03-22T08:00:49;95132.41;;;8.26;61.83
24892;BME280;12954;50.688;10.908;2023-03-22T08:03:17;95147.38;;;8.47;61.61
24892;BME280;12954;50.688;10.908;2023-03-22T08:05:45;95151.63;;;8.53;61.27
24892;BME280;12954;50.688;10.908;2023-03-22T08:08:14;95147.91;;;8.44;61.09
24892;BME280;12954;50.688;10.908;2023-03-22T08:10:47;95152.22;;;8.40;60.98
24892;BME280;12954;50.688;10.908;2023-03-22T08:13:16;95160.03;;;8.36;61.60
24892;BME280;12954;50.688;10.908;2023-03-22T08:15:44;95151.38;;;8.50;60.98
24892;BME280;12954;50.688;10.908;2023-03-22T08:18:13;95168.28;;;8.55;61.19
24892;BME280;12954;50.688;10.908;2023-03-22T08:20:41;95166.09;;;8.62;61.21
24892;BME280;12954;50.688;10.908;2023-03-22T08:23:11;95156.66;;;8.70;60.94
24892;BME280;12954;50.688;10.908;2023-03-22T08:25:43;95127.97;;;8.55;60.60
24892;BME280;12954;50.688;10.908;2023-03-22T08:28:12;95156.00;;;8.83;60.58
24892;BME280;12954;50.688;10.908;2023-03-22T08:30:41;95169.09;;;8.94;60.40
24892;BME280;12954;50.688;10.908;2023-03-22T08:33:10;95156.75;;;8.93;60.28
24892;BME280;12954;50.688;10.908;2023-03-22T08:35:39;95135.81;;;8.90;60.29
24892;BME280;12954;50.688;10.908;2023-03-22T08:38:08;95148.09;;;9.02;60.35
24892;BME280;12954;50.688;10.908;2023-03-22T08:40:36;95131.19;;;8.96;60.15
24892;BME280;12954;50.688;10.908;2023-03-22T08:43:06;95151.00;;;9.10;60.11
24892;BME280;12954;50.688;10.908;2023-03-22T08:45:35;95122.34;;;8.90;59.83
24892;BME280;12954;50.688;10.908;2023-03-22T08:48:04;95133.47;;;9.18;59.43
24892;BME280;12954;50.688;10.908;2023-03-22T08:50:33;95125.28;;;8.94;59.59
24892;BME280;12954;50.688;10.908;2023-03-22T08:53:01;95138.50;;;9.24;59.07
24892;BME280;12954;50.688;10.908;2023-03-22T08:55:32;95131.81;;;9.22;59.31
24892;BME280;12954;50.688;10.908;2023-03-22T08:58:02;95140.19;;;9.20;59.52
24892;BME280;12954;50.688;10.908;2023-03-22T09:00:32;95133.44;;;9.23;59.45
24892;BME280;12954;50.688;10.908;2023-03-22T09:03:14;95108.91;;;9.24;59.04
24892;BME280;12954;50.688;10.908;2023-03-22T09:05:43;95122.47;;;9.43;58.54
24892;BME280;12954;50.688;10.908;2023-03-22T09:08:11;95095.25;;;9.21;58.39
24892;BME280;12954;50.688;10.908;2023-03-22T09:10:45;95095.00;;;9.17;58.73
24892;BME280;12954;50.688;10.908;2023-03-22T09:13:18;95130.63;;;9.38;58.76
24892;BME280;12954;50.688;10.908;2023-03-22T09:15:49;95119.72;;;9.48;57.99
24892;BME280;12954;50.688;10.908;2023-03-22T09:18:18;95117.03;;;9.48;58.25
24892;BME280;12954;50.688;10.908;2023-03-22T09:20:46;95112.75;;;9.47;58.03
24892;BME280;12954;50.688;10.908;2023-03-22T09:23:15;95113.69;;;9.61;57.13
24892;BME280;12954;50.688;10.908;2023-03-22T09:25:44;95103.88;;;9.46;57.80
24892;BME280;12954;50.688;10.908;2023-03-22T09:28:13;95118.28;;;9.61;57.78
24892;BME280;12954;50.688;10.908;2023-03-22T09:30:42;95112.66;;;9.57;58.04
24892;BME280;12954;50.688;10.908;2023-03-22T09:33:12;95116.84;;;9.68;57.74
24892;BME280;12954;50.688;10.908;2023-03-22T09:35:41;95110.44;;;9.64;58.03
24892;BME280;12954;50.688;10.908;2023-03-22T09:38:10;95110.38;;;9.69;58.06
24892;BME280;12954;50.688;10.908;2023-03-22T09:40:48;95113.41;;;9.86;57.15
24892;BME280;12954;50.688;10.908;2023-03-22T09:43:18;95130.09;;;9.65;57.69
24892;BME280;12954;50.688;10.908;2023-03-22T09:45:49;95075.81;;;9.53;57.88
24892;BME280;12954;50.688;10.908;2023-03-22T09:48:22;95089.47;;;9.61;58.10
24892;BME280;12954;50.688;10.908;2023-03-22T09:50:55;95096.91;;;9.69;58.33
24892;BME280;12954;50.688;10.908;2023-03-22T09:53:26;95088.81;;;9.69;58.24
24892;BME280;12954;50.688;10.908;2023-03-22T09:55:57;95078.53;;;9.76;57.94
24892;BME280;12954;50.688;10.908;2023-03-22T09:58:31;95054.44;;;9.85;56.40
24892;BME280;12954;50.688;10.908;2023-03-22T10:01:03;95090.22;;;10.09;56.34
24892;BME280;12954;50.688;10.908;2023-03-22T10:03:52;95081.38;;;10.09;57.11
24892;BME280;12954;50.688;10.908;2023-03-22T10:06:25;95087.19;;;10.16;57.45
24892;BME280;12954;50.688;10.908;2023-03-22T10:09:01;95081.22;;;10.42;56.70
24892;BME280;12954;50.688;10.908;2023-03-22T10:11:40;95071.34;;;10.33;56.07
24892;BME280;12954;50.688;10.908;2023-03-22T10:14:29;95090.47;;;10.55;56.59
24892;BME280;12954;50.688;10.908;2023-03-22T10:17:01;95109.50;;;10.64;56.36
24892;BME280;12954;50.688;10.908;2023-03-22T10:19:35;95074.00;;;10.56;54.81
24892;BME280;12954;50.688;10.908;2023-03-22T10:22:09;95081.81;;;10.58;54.81
24892;BME280;12954;50.688;10.908;2023-03-22T10:24:39;95074.38;;;10.50;54.80
24892;BME280;12954;50.688;10.908;2023-03-22T10:27:13;95083.78;;;10.52;54.70
24892;BME280;12954;50.688;10.908;2023-03-22T10:29:45;95069.03;;;10.64;54.05
24892;BME280;12954;50.688;10.908;2023-03-22T10:32:17;95080.28;;;10.52;54.63
24892;BME280;12954;50.688;10.908;2023-03-22T10:34:47;95069.19;;;10.53;54.10
24892;BME280;12954;50.688;10.908;2023-03-22T10:37:18;95062.63;;;10.59;54.29
24892;BME280;12954;50.688;10.908;2023-03-22T10:39:49;95053.94;;;10.63;53.26
24892;BME280;12954;50.688;10.908;2023-03-22T10:42:21;95079.66;;;10.74;53.63
24892;BME280;12954;50.688;10.908;2023-03-22T10:44:53;95073.09;;;10.98;52.05
24892;BME280;12954;50.688;10.908;2023-03-22T10:47:29;95033.28;;;10.90;52.20
24892;BME280;12954;50.688;10.908;2023-03-22T10:50:04;95026.13;;;10.99;51.65
24892;BME280;12954;50.688;10.908;2023-03-22T10:52:40;95029.16;;;11.11;51.67
24892;BME280;12954;50.688;10.908;2023-03-22T10:55:12;95041.38;;;11.23;51.94
24892;BME280;12954;50.688;10.908;2023-03-22T10:57:41;95040.19;;;11.42;51.30
24892;BME280;12954;50.688;10.908;2023-03-22T11:00:15;95043.41;;;11.44;50.17
24892;BME280;12954;50.688;10.908;2023-03-22T11:02:46;95064.59;;;11.37;50.89
24892;BME280;12954;50.688;10.908;2023-03-22T11:05:22;95048.09;;;11.39;50.54
24892;BME280;12954;50.688;10.908;2023-03-22T11:07:51;95061.47;;;11.49;50.64
24892;BME280;12954;50.688;10.908;2023-03-22T11:10:23;95030.34;;;11.19;50.85
24892;BME280;12954;50.688;10.908;2023-03-22T11:12:55;95059.59;;;11.44;50.86
24892;BME280;12954;50.688;10.908;2023-03-22T11:15:26;95055.47;;;11.52;50.29
24892;BME280;12954;50.688;10.908;2023-03-22T11:18:01;95059.84;;;11.48;50.30
24892;BME280;12954;50.688;10.908;2023-03-22T11:20:31;95032.03;;;11.47;50.06
24892;BME280;12954;50.688;10.908;2023-03-22T11:23:03;95033.03;;;11.51;49.74
24892;BME280;12954;50.688;10.908;2023-03-22T11:25:34;95034.66;;;11.52;49.35
24892;BME280;12954;50.688;10.908;2023-03-22T11:28:08;95044.78;;;11.42;49.57
24892;BME280;12954;50.688;10.908;2023-03-22T11:30:37;95018.31;;;11.44;49.71
24892;BME280;12954;50.688;10.908;2023-03-22T11:33:15;95045.63;;;11.56;49.41
24892;BME280;12954;50.688;10.908;2023-03-22T11:35:52;95037.66;;;11.64;49.23
24892;BME280;12954;50.688;10.908;2023-03-22T11:38:26;95030.16;;;11.75;48.44
24892;BME280;12954;50.688;10.908;2023-03-22T11:40:59;95031.47;;;11.64;48.93
24892;BME280;12954;50.688;10.908;2023-03-22T11:43:32;95024.44;;;11.63;49.24
24892;BME280;12954;50.688;10.908;2023-03-22T11:46:02;95027.53;;;11.56;49.20
24892;BME280;12954;50.688;10.908;2023-03-22T11:48:32;95024.13;;;11.51;49.29
24892;BME280;12954;50.688;10.908;2023-03-22T11:51:08;95016.25;;;11.54;49.21
24892;BME280;12954;50.688;10.908;2023-03-22T11:53:39;94983.81;;;11.41;49.21
24892;BME280;12954;50.688;10.908;2023-03-22T11:56:10;95007.63;;;11.66;48.37
24892;BME280;12954;50.688;10.908;2023-03-22T11:58:54;95000.84;;;11.55;48.82
24892;BME280;12954;50.688;10.908;2023-03-22T12:01:31;94994.09;;;11.39;49.06
24892;BME280;12954;50.688;10.908;2023-03-22T12:04:04;95004.53;;;11.59;48.99
24892;BME280;12954;50.688;10.908;2023-03-22T12:06:38;94988.22;;;11.64;48.67
24892;BME280;12954;50.688;10.908;2023-03-22T12:09:17;94998.59;;;11.43;49.10
24892;BME280;12954;50.688;10.908;2023-03-22T12:11:50;94962.97;;;11.28;48.84
24892;BME280;12954;50.688;10.908;2023-03-22T12:14:23;94964.97;;;11.36;49.02
24892;BME280;12954;50.688;10.908;2023-03-22T12:16:56;94963.78;;;11.42;49.12
24892;BME280;12954;50.688;10.908;2023-03-22T12:19:37;94992.88;;;11.45;49.31
24892;BME280;12954;50.688;10.908;2023-03-22T12:22:13;95000.69;;;11.46;49.08
24892;BME280;12954;50.688;10.908;2023-03-22T12:24:43;94979.44;;;11.58;48.37
24892;BME280;12954;50.688;10.908;2023-03-22T12:27:16;94975.81;;;11.63;47.98
24892;BME280;12954;50.688;10.908;2023-03-22T12:29:52;94985.09;;;11.43;48.40
24892;BME280;12954;50.688;10.908;2023-03-22T12:32:24;94981.50;;;11.48;48.78
24892;BME280;12954;50.688;10.908;2023-03-22T12:34:54;94984.03;;;11.58;48.98
24892;BME280;12954;50.688;10.908;2023-03-22T12:37:45;94976.41;;;11.74;48.39
24892;BME280;12954;50.688;10.908;2023-03-22T12:40:19;94938.41;;;11.70;48.66
24892;BME280;12954;50.688;10.908;2023-03-22T12:43:00;94966.03;;;12.03;48.06
24892;BME280;12954;50.688;10.908;2023-03-22T12:45:32;94954.53;;;11.97;47.45
24892;BME280;12954;50.688;10.908;2023-03-22T12:48:08;94959.09;;;12.24;46.91
24892;BME280;12954;50.688;10.908;2023-03-22T12:50:42;94968.47;;;12.04;47.35
24892;BME280;12954;50.688;10.908;2023-03-22T12:53:15;94964.75;;;12.14;46.95
24892;BME280;12954;50.688;10.908;2023-03-22T12:55:46;94958.03;;;12.11;47.34
24892;BME280;12954;50.688;10.908;2023-03-22T12:58:17;94960.63;;;12.39;46.54
24892;BME280;12954;50.688;10.908;2023-03-22T13:00:49;94955.00;;;12.49;46.19
24892;BME280;12954;50.688;10.908;2023-03-22T13:03:24;94911.97;;;12.39;45.87
24892;BME280;12954;50.688;10.908;2023-03-22T13:06:00;94940.13;;;12.82;46.11
24892;BME280;12954;50.688;10.908;2023-03-22T13:09:10;94941.34;;;12.98;45.93
24892;BME280;12954;50.688;10.908;2023-03-22T13:11:42;94941.22;;;13.03;45.61
24892;BME280;12954;50.688;10.908;2023-03-22T13:16:58;94940.69;;;13.32;44.90
24892;BME280;12954;50.688;10.908;2023-03-22T13:19:31;94945.09;;;13.50;44.38
24892;BME280;12954;50.688;10.908;2023-03-22T13:22:17;94887.00;;;13.25;44.08
24892;BME280;12954;50.688;10.908;2023-03-22T13:25:13;94900.22;;;13.27;44.10
24892;BME280;12954;50.688;10.908;2023-03-22T13:27:56;94933.03;;;13.65;43.57